sensor_id;sensor_type;location;lat;lon;timestamp;temperature;humidity
40996;DHT22;26723;57.478;12.066;2023-08-31T00:00:28;13.50;99.90
40996;DHT22;26723;57.478;12.066;2023-08-31T00:03:38;13.40;99.90
40996;DHT22;26723;57.478;12.066;2023-08-31T00:06:47;13.40;99.90
40996;DHT22;26723;57.478;12.066;2023-08-31T00:09:56;13.40;99.90
40996;DHT22;26723;57.478;12.066;2023-08-31T00:13:05;13.40;99.90
40996;DHT22;26723;57.478;12.066;2023-08-31T00:16:16;13.40;99.90
40996;DHT22;26723;57.478;12.066;2023-08-31T00:19:25;13.30;99.90
40996;DHT22;26723;57.478;12.066;2023-08-31T00:22:33;13.30;99.90
40996;DHT22;26723;57.478;12.066;2023-08-31T00:25:44;13.30;99.90
40996;DHT22;26723;57.478;12.066;2023-08-31T00:28:52;13.30;99.90
40996;DHT22;26723;57.478;12.066;2023-08-31T00:32:02;13.20;99.90
40996;DHT22;26723;57.478;12.066;2023-08-31T00:35:11;13.20;99.90
40996;DHT22;26723;57.478;12.066;2023-08-31T00:38:20;13.20;99.90
40996;DHT22;26723;57.478;12.066;2023-08-31T00:41:29;13.30;99.90
40996;DHT22;26723;57.478;12.066;2023-08-31T00:44:38;13.10;99.90
40996;DHT22;26723;57.478;12.066;2023-08-31T00:47:47;13.10;99.90
40996;DHT22;26723;57.478;12.066;2023-08-31T00:50:56;13.10;99.90
40996;DHT22;26723;57.478;12.066;2023-08-31T00:54:05;13.10;99.90
40996;DHT22;26723;57.478;12.066;2023-08-31T00:57:19;13.10;99.90
40996;DHT22;26723;57.478;12.066;2023-08-31T01:00:40;13.00;99.90
40996;DHT22;26723;57.478;12.066;2023-08-31T01:03:58;13.00;99.90
40996;DHT22;26723;57.478;12.066;2023-08-31T01:07:18;13.00;99.90
40996;DHT22;26723;57.478;12.066;2023-08-31T01:10:36;12.90;99.90
40996;DHT22;26723;57.478;12.066;2023-08-31T01:13:53;12.70;99.90
40996;DHT22;26723;57.478;12.066;2023-08-31T01:17:04;12.70;99.90
40996;DHT22;26723;57.478;12.066;2023-08-31T01:20:17;12.70;99.90
40996;DHT22;26723;57.478;12.066;2023-08-31T01:26:48;12.70;99.90
40996;DHT22;26723;57.478;12.066;2023-08-31T01:29:57;12.80;99.90
40996;DHT22;26723;57.478;12.066;2023-08-31T01:33:06;12.80;99.90
40996;DHT22;26723;57.478;12.066;2023-08-31T01:36:20;12.90;99.90
40996;DHT22;26723;57.478;12.066;2023-08-31T01:39:35;12.90;99.90
40996;DHT22;26723;57.478;12.066;2023-08-31T01:42:50;12.80;99.90
40996;DHT22;26723;57.478;12.066;2023-08-31T01:45:58;12.80;99.90
40996;DHT22;26723;57.478;12.066;2023-08-31T01:49:07;12.70;99.90
40996;DHT22;26723;57.478;12.066;2023-08-31T01:52:16;12.70;99.90
40996;DHT22;26723;57.478;12.066;2023-08-31T01:55:24;12.80;99.90
40996;DHT22;26723;57.478;12.066;2023-08-31T01:58:34;12.80;99.90
40996;DHT22;26723;57.478;12.066;2023-08-31T02:01:43;12.70;99.90
40996;DHT22;26723;57.478;12.066;2023-08-31T02:04:51;12.80;99.90
40996;DHT22;26723;57.478;12.066;2023-08-31T02:08:00;12.80;99.90
40996;DHT22;26723;57.478;12.066;2023-08-31T02:11:08;12.70;99.90
40996;DHT22;26723;57.478;12.066;2023-08-31T02:14:18;12.70;99.90
40996;DHT22;26723;57.478;12.066;2023-08-31T02:17:27;12.70;99.90
40996;DHT22;26723;57.478;12.066;2023-08-31T02:20:36;12.70;99.90
40996;DHT22;26723;57.478;12.066;2023-08-31T02:23:44;12.70;99.90
40996;DHT22;26723;57.478;12.066;2023-08-31T02:26:52;12.70;99.90
40996;DHT22;26723;57.478;12.066;2023-08-31T02:30:03;12.80;99.90
40996;DHT22;26723;57.478;12.066;2023-08-31T02:33:14;12.70;99.90
40996;DHT22;26723;57.478;12.066;2023-08-31T02:36:22;12.70;99.90
40996;DHT22;26723;57.478;12.066;2023-08-31T02:39:31;12.60;99.90
40996;DHT22;26723;57.478;12.066;2023-08-31T02:42:39;12.70;99.90
40996;DHT22;26723;57.478;12.066;2023-08-31T02:45:49;12.70;99.90
40996;DHT22;26723;57.478;12.066;2023-08-31T02:48:58;12.60;99.90
40996;DHT22;26723;57.478;12.066;2023-08-31T02:52:07;12.60;99.90
40996;DHT22;26723;57.478;12.066;2023-08-31T02:55:15;12.50;99.90
40996;DHT22;26723;57.478;12.066;2023-08-31T02:58:24;12.50;99.90
40996;DHT22;26723;57.478;12.066;2023-08-31T03:01:34;12.50;99.90
40996;DHT22;26723;57.478;12.066;2023-08-31T03:04:42;12.60;99.90
40996;DHT22;26723;57.478;12.066;2023-08-31T03:07:51;12.50;99.90
40996;DHT22;26723;57.478;12.066;2023-08-31T03:10:59;12.50;99.90
40996;DHT22;26723;57.478;12.066;2023-08-31T03:14:08;12.40;99.90
40996;DHT22;26723;57.478;12.066;2023-08-31T03:17:21;12.40;99.90
40996;DHT22;26723;57.478;12.066;2023-08-31T03:20:31;12.40;99.90
40996;DHT22;26723;57.478;12.066;2023-08-31T03:23:40;12.40;99.90
40996;DHT22;26723;57.478;12.066;2023-08-31T03:26:48;12.50;99.90
40996;DHT22;26723;57.478;12.066;2023-08-31T03:29:59;12.50;99.90
40996;DHT22;26723;57.478;12.066;2023-08-31T03:33:10;12.50;99.90
40996;DHT22;26723;57.478;12.066;2023-08-31T03:36:19;12.50;99.90
40996;DHT22;26723;57.478;12.066;2023-08-31T03:39:27;12.50;99.90
40996;DHT22;26723;57.478;12.066;2023-08-31T03:42:36;12.50;99.90
40996;DHT22;26723;57.478;12.066;2023-08-31T03:45:45;12.50;99.90
40996;DHT22;26723;57.478;12.066;2023-08-31T03:48:55;12.50;99.90
40996;DHT22;26723;57.478;12.066;2023-08-31T03:52:04;12.50;99.90
40996;DHT22;26723;57.478;12.066;2023-08-31T03:55:12;12.40;99.90
40996;DHT22;26723;57.478;12.066;2023-08-31T03:58:21;12.40;99.90
40996;DHT22;26723;57.478;12.066;2023-08-31T04:01:31;12.40;99.90
40996;DHT22;26723;57.478;12.066;2023-08-31T04:04:42;12.40;99.90
40996;DHT22;26723;57.478;12.066;2023-08-31T04:07:50;12.40;99.90
40996;DHT22;26723;57.478;12.066;2023-08-31T04:10:59;12.30;99.90
40996;DHT22;26723;57.478;12.066;2023-08-31T04:14:07;12.30;99.90
40996;DHT22;26723;57.478;12.066;2023-08-31T04:17:16;12.30;99.90
40996;DHT22;26723;57.478;12.066;2023-08-31T04:20:26;12.20;99.90
40996;DHT22;26723;57.478;12.066;2023-08-31T04:23:34;12.20;99.90
40996;DHT22;26723;57.478;12.066;2023-08-31T04:26:43;12.10;99.90
40996;DHT22;26723;57.478;12.066;2023-08-31T04:29:52;12.10;99.90
40996;DHT22;26723;57.478;12.066;2023-08-31T04:33:00;12.10;99.90
40996;DHT22;26723;57.478;12.066;2023-08-31T04:36:13;12.20;99.90
40996;DHT22;26723;57.478;12.066;2023-08-31T04:39:21;12.10;99.90
40996;DHT22;26723;57.478;12.066;2023-08-31T04:42:30;12.10;99.90
40996;DHT22;26723;57.478;12.066;2023-08-31T04:45:38;12.20;99.90
40996;DHT22;26723;57.478;12.066;2023-08-31T04:48:47;12.30;99.90
40996;DHT22;26723;57.478;12.066;2023-08-31T04:51:57;12.30;99.90
40996;DHT22;26723;57.478;12.066;2023-08-31T04:55:07;12.30;99.90
40996;DHT22;26723;57.478;12.066;2023-08-31T04:58:15;12.40;99.90
40996;DHT22;26723;57.478;12.066;2023-08-31T05:01:24;12.50;99.90
40996;DHT22;26723;57.478;12.066;2023-08-31T05:04:32;12.40;99.90
40996;DHT22;26723;57.478;12.066;2023-08-31T05:07:42;12.40;99.90
40996;DHT22;26723;57.478;12.066;2023-08-31T05:10:51;12.60;99.90
40996;DHT22;26723;57.478;12.066;2023-08-31T05:13:59;12.70;99.90
40996;DHT22;26723;57.478;12.066;2023-08-31T05:17:08;12.70;99.90
40996;DHT22;26723;57.478;12.066;2023-08-31T05:20:16;12.70;99.90
40996;DHT22;26723;57.478;12.066;2023-08-31T05:23:26;12.80;99.90
40996;DHT22;26723;57.478;12.066;2023-08-31T05:26:35;12.90;99.90
40996;DHT22;26723;57.478;12.066;2023-08-31T05:29:43;13.10;99.90
40996;DHT22;26723;57.478;12.066;2023-08-31T05:32:51;13.20;99.90
40996;DHT22;26723;57.478;12.066;2023-08-31T05:36:01;13.40;99.90
40996;DHT22;26723;57.478;12.066;2023-08-31T05:39:12;13.50;99.90
40996;DHT22;26723;57.478;12.066;2023-08-31T05:42:22;13.60;99.90
40996;DHT22;26723;57.478;12.066;2023-08-31T05:45:32;13.70;99.90
40996;DHT22;26723;57.478;12.066;2023-08-31T05:48:41;13.80;99.90
40996;DHT22;26723;57.478;12.066;2023-08-31T05:51:50;14.00;99.90
40996;DHT22;26723;57.478;12.066;2023-08-31T05:55:00;14.20;99.90
40996;DHT22;26723;57.478;12.066;2023-08-31T05:58:08;14.40;99.90
40996;DHT22;26723;57.478;12.066;2023-08-31T06:01:17;14.60;99.90
40996;DHT22;26723;57.478;12.066;2023-08-31T06:04:25;14.80;99.90
40996;DHT22;26723;57.478;12.066;2023-08-31T06:07:34;15.00;99.90
40996;DHT22;26723;57.478;12.066;2023-08-31T06:10:44;15.30;99.90
40996;DHT22;26723;57.478;12.066;2023-08-31T06:13:52;15.70;99.90
40996;DHT22;26723;57.478;12.066;2023-08-31T06:17:01;17.70;99.90
40996;DHT22;26723;57.478;12.066;2023-08-31T06:20:10;19.30;99.90
40996;DHT22;26723;57.478;12.066;2023-08-31T06:23:19;20.50;99.90
40996;DHT22;26723;57.478;12.066;2023-08-31T06:26:29;21.30;99.90
40996;DHT22;26723;57.478;12.066;2023-08-31T06:29:38;21.70;99.90
40996;DHT22;26723;57.478;12.066;2023-08-31T06:32:47;22.30;99.90
40996;DHT22;26723;57.478;12.066;2023-08-31T06:35:57;23.00;99.90
40996;DHT22;26723;57.478;12.066;2023-08-31T06:39:06;23.40;99.90
40996;DHT22;26723;57.478;12.066;2023-08-31T06:42:16;23.80;99.90
40996;DHT22;26723;57.478;12.066;2023-08-31T06:45:24;24.30;99.90
40996;DHT22;26723;57.478;12.066;2023-08-31T06:48:33;24.20;99.90
40996;DHT22;26723;57.478;12.066;2023-08-31T06:51:44;24.70;99.90
40996;DHT22;26723;57.478;12.066;2023-08-31T06:54:53;24.90;99.90
40996;DHT22;26723;57.478;12.066;2023-08-31T06:58:05;25.10;99.90
40996;DHT22;26723;57.478;12.066;2023-08-31T07:01:14;25.60;99.90
40996;DHT22;26723;57.478;12.066;2023-08-31T07:04:22;25.70;99.90
40996;DHT22;26723;57.478;12.066;2023-08-31T07:07:31;26.20;99.90
40996;DHT22;26723;57.478;12.066;2023-08-31T07:10:39;26.60;99.90
40996;DHT22;26723;57.478;12.066;2023-08-31T07:13:49;27.20;99.90
40996;DHT22;26723;57.478;12.066;2023-08-31T07:16:58;27.70;99.90
40996;DHT22;26723;57.478;12.066;2023-08-31T07:20:07;28.00;99.90
40996;DHT22;26723;57.478;12.066;2023-08-31T07:23:16;28.00;99.90
40996;DHT22;26723;57.478;12.066;2023-08-31T07:26:24;28.50;99.90
40996;DHT22;26723;57.478;12.066;2023-08-31T07:29:34;28.90;99.90
40996;DHT22;26723;57.478;12.066;2023-08-31T07:32:42;28.90;99.90
40996;DHT22;26723;57.478;12.066;2023-08-31T07:35:51;28.90;99.90
40996;DHT22;26723;57.478;12.066;2023-08-31T07:39:00;29.90;99.90
40996;DHT22;26723;57.478;12.066;2023-08-31T07:42:08;29.90;99.90
40996;DHT22;26723;57.478;12.066;2023-08-31T07:45:18;29.50;99.90
40996;DHT22;26723;57.478;12.066;2023-08-31T07:48:27;28.10;99.90
40996;DHT22;26723;57.478;12.066;2023-08-31T07:51:35;27.20;99.90
40996;DHT22;26723;57.478;12.066;2023-08-31T07:54:43;26.80;99.90
40996;DHT22;26723;57.478;12.066;2023-08-31T07:57:52;26.60;99.90
40996;DHT22;26723;57.478;12.066;2023-08-31T08:01:03;26.30;99.90
40996;DHT22;26723;57.478;12.066;2023-08-31T08:04:12;26.20;99.90
40996;DHT22;26723;57.478;12.066;2023-08-31T08:07:20;26.50;99.90
40996;DHT22;26723;57.478;12.066;2023-08-31T08:10:30;26.40;99.90
40996;DHT22;26723;57.478;12.066;2023-08-31T08:13:38;26.30;99.90
40996;DHT22;26723;57.478;12.066;2023-08-31T08:16:49;26.30;99.90
40996;DHT22;26723;57.478;12.066;2023-08-31T08:19:57;26.50;99.90
40996;DHT22;26723;57.478;12.066;2023-08-31T08:23:09;26.60;99.90
40996;DHT22;26723;57.478;12.066;2023-08-31T08:26:18;26.70;99.90
40996;DHT22;26723;57.478;12.066;2023-08-31T08:29:26;26.80;99.90
40996;DHT22;26723;57.478;12.066;2023-08-31T08:32:36;26.90;99.90
40996;DHT22;26723;57.478;12.066;2023-08-31T08:35:45;26.90;99.90
40996;DHT22;26723;57.478;12.066;2023-08-31T08:38:53;26.90;99.90
40996;DHT22;26723;57.478;12.066;2023-08-31T08:42:04;26.90;99.90
40996;DHT22;26723;57.478;12.066;2023-08-31T08:45:16;27.10;99.90
40996;DHT22;26723;57.478;12.066;2023-08-31T08:48:26;27.30;99.90
40996;DHT22;26723;57.478;12.066;2023-08-31T08:51:34;27.00;99.90
40996;DHT22;26723;57.478;12.066;2023-08-31T08:54:43;27.20;99.90
40996;DHT22;26723;57.478;12.066;2023-08-31T08:57:52;27.30;99.90
40996;DHT22;26723;57.478;12.066;2023-08-31T09:01:02;27.10;99.90
40996;DHT22;26723;57.478;12.066;2023-08-31T09:04:13;26.90;99.90
40996;DHT22;26723;57.478;12.066;2023-08-31T09:07:21;26.60;99.90
40996;DHT22;26723;57.478;12.066;2023-08-31T09:10:35;25.80;99.90
40996;DHT22;26723;57.478;12.066;2023-08-31T09:13:44;25.70;99.90
40996;DHT22;26723;57.478;12.066;2023-08-31T09:16:53;25.80;99.90
40996;DHT22;26723;57.478;12.066;2023-08-31T09:20:05;25.50;99.90
40996;DHT22;26723;57.478;12.066;2023-08-31T09:23:14;25.60;99.90
40996;DHT22;26723;57.478;12.066;2023-08-31T09:26:22;25.60;99.90
40996;DHT22;26723;57.478;12.066;2023-08-31T09:29:31;25.70;99.90
40996;DHT22;26723;57.478;12.066;2023-08-31T09:32:39;25.70;99.90
40996;DHT22;26723;57.478;12.066;2023-08-31T09:35:52;25.30;99.90
40996;DHT22;26723;57.478;12.066;2023-08-31T09:39:00;25.00;99.90
40996;DHT22;26723;57.478;12.066;2023-08-31T09:42:09;24.80;99.90
40996;DHT22;26723;57.478;12.066;2023-08-31T09:45:18;24.90;99.90
40996;DHT22;26723;57.478;12.066;2023-08-31T09:48:51;25.20;99.90
40996;DHT22;26723;57.478;12.066;2023-08-31T09:52:04;25.00;99.90
40996;DHT22;26723;57.478;12.066;2023-08-31T09:55:15;25.00;99.90
40996;DHT22;26723;57.478;12.066;2023-08-31T09:58:25;24.70;99.90
40996;DHT22;26723;57.478;12.066;2023-08-31T10:01:34;24.50;99.90
40996;DHT22;26723;57.478;12.066;2023-08-31T10:04:43;24.30;99.90
40996;DHT22;26723;57.478;12.066;2023-08-31T10:07:54;24.00;99.90
40996;DHT22;26723;57.478;12.066;2023-08-31T10:11:04;23.80;99.90
40996;DHT22;26723;57.478;12.066;2023-08-31T10:14:14;23.60;99.90
40996;DHT22;26723;57.478;12.066;2023-08-31T10:17:24;23.30;99.90
40996;DHT22;26723;57.478;12.066;2023-08-31T10:20:34;23.20;99.90
40996;DHT22;26723;57.478;12.066;2023-08-31T10:23:46;23.20;99.90
40996;DHT22;26723;57.478;12.066;2023-08-31T10:26:55;23.00;99.90
40996;DHT22;26723;57.478;12.066;2023-08-31T10:30:15;23.00;99.90
40996;DHT22;26723;57.478;12.066;2023-08-31T10:33:23;23.30;99.90
40996;DHT22;26723;57.478;12.066;2023-08-31T10:36:36;23.30;99.90
40996;DHT22;26723;57.478;12.066;2023-08-31T10:39:47;23.20;99.90
40996;DHT22;26723;57.478;12.066;2023-08-31T10:43:14;23.20;99.90
40996;DHT22;26723;57.478;12.066;2023-08-31T10:46:28;23.20;99.90
40996;DHT22;26723;57.478;12.066;2023-08-31T10:49:37;23.30;99.90
40996;DHT22;26723;57.478;12.066;2023-08-31T10:52:45;23.30;99.90
40996;DHT22;26723;57.478;12.066;2023-08-31T10:55:55;23.20;99.90
40996;DHT22;26723;57.478;12.066;2023-08-31T10:59:03;23.00;99.90
40996;DHT22;26723;57.478;12.066;2023-08-31T11:02:30;23.00;99.90
40996;DHT22;26723;57.478;12.066;2023-08-31T11:05:50;23.10;99.90
40996;DHT22;26723;57.478;12.066;2023-08-31T11:08:59;23.30;99.90
40996;DHT22;26723;57.478;12.066;2023-08-31T11:12:09;23.20;99.90
40996;DHT22;26723;57.478;12.066;2023-08-31T11:15:19;23.10;99.90
40996;DHT22;26723;57.478;12.066;2023-08-31T11:18:28;23.00;99.90
40996;DHT22;26723;57.478;12.066;2023-08-31T11:21:37;23.00;99.90
40996;DHT22;26723;57.478;12.066;2023-08-31T11:24:46;22.90;99.90
40996;DHT22;26723;57.478;12.066;2023-08-31T11:27:57;22.80;99.90
40996;DHT22;26723;57.478;12.066;2023-08-31T11:31:06;22.70;99.90
40996;DHT22;26723;57.478;12.066;2023-08-31T11:34:15;22.60;99.90
40996;DHT22;26723;57.478;12.066;2023-08-31T11:37:26;22.50;99.90
40996;DHT22;26723;57.478;12.066;2023-08-31T11:40:35;22.40;99.90
40996;DHT22;26723;57.478;12.066;2023-08-31T11:43:45;22.40;99.90
40996;DHT22;26723;57.478;12.066;2023-08-31T11:46:54;22.50;99.90
40996;DHT22;26723;57.478;12.066;2023-08-31T11:50:04;22.50;99.90
40996;DHT22;26723;57.478;12.066;2023-08-31T11:53:13;22.40;99.90
40996;DHT22;26723;57.478;12.066;2023-08-31T11:56:22;22.30;99.90
40996;DHT22;26723;57.478;12.066;2023-08-31T11:59:34;22.10;99.90
40996;DHT22;26723;57.478;12.066;2023-08-31T12:02:43;22.10;99.90
40996;DHT22;26723;57.478;12.066;2023-08-31T12:05:54;22.20;99.90
40996;DHT22;26723;57.478;12.066;2023-08-31T12:09:06;22.00;99.90
40996;DHT22;26723;57.478;12.066;2023-08-31T12:12:15;22.00;99.90
40996;DHT22;26723;57.478;12.066;2023-08-31T12:15:30;21.90;99.90
40996;DHT22;26723;57.478;12.066;2023-08-31T12:18:39;21.60;99.90
40996;DHT22;26723;57.478;12.066;2023-08-31T12:21:47;21.50;99.90
40996;DHT22;26723;57.478;12.066;2023-08-31T12:24:56;21.50;99.90
40996;DHT22;26723;57.478;12.066;2023-08-31T12:28:05;21.40;99.90
40996;DHT22;26723;57.478;12.066;2023-08-31T12:31:15;21.20;99.90
40996;DHT22;26723;57.478;12.066;2023-08-31T12:34:24;21.00;99.90
40996;DHT22;26723;57.478;12.066;2023-08-31T12:37:35;20.90;99.90
40996;DHT22;26723;57.478;12.066;2023-08-31T12:40:43;20.90;99.90
40996;DHT22;26723;57.478;12.066;2023-08-31T12:43:52;21.00;99.90
40996;DHT22;26723;57.478;12.066;2023-08-31T12:47:02;21.20;99.90
40996;DHT22;26723;57.478;12.066;2023-08-31T12:50:12;21.30;99.90
40996;DHT22;26723;57.478;12.066;2023-08-31T12:53:22;21.20;99.90
40996;DHT22;26723;57.478;12.066;2023-08-31T12:56:30;21.00;99.90
40996;DHT22;26723;57.478;12.066;2023-08-31T12:59:39;21.00;99.90
40996;DHT22;26723;57.478;12.066;2023-08-31T13:02:51;21.00;99.90
40996;DHT22;26723;57.478;12.066;2023-08-31T13:06:00;21.10;99.90
40996;DHT22;26723;57.478;12.066;2023-08-31T13:09:08;21.00;99.90
40996;DHT22;26723;57.478;12.066;2023-08-31T13:12:17;21.00;99.90
40996;DHT22;26723;57.478;12.066;2023-08-31T13:15:26;20.90;99.90
40996;DHT22;26723;57.478;12.066;2023-08-31T13:18:36;20.80;99.90
40996;DHT22;26723;57.478;12.066;2023-08-31T13:21:45;20.80;99.90
40996;DHT22;26723;57.478;12.066;2023-08-31T13:24:53;20.80;99.90
40996;DHT22;26723;57.478;12.066;2023-08-31T13:28:02;20.60;99.90
40996;DHT22;26723;57.478;12.066;2023-08-31T13:31:11;20.30;99.90
40996;DHT22;26723;57.478;12.066;2023-08-31T13:34:22;20.00;99.90
40996;DHT22;26723;57.478;12.066;2023-08-31T13:37:31;19.80;99.90
40996;DHT22;26723;57.478;12.066;2023-08-31T13:40:39;19.80;99.90
40996;DHT22;26723;57.478;12.066;2023-08-31T13:43:49;19.70;99.90
40996;DHT22;26723;57.478;12.066;2023-08-31T13:46:57;19.30;99.90
40996;DHT22;26723;57.478;12.066;2023-08-31T13:50:08;19.00;99.90
40996;DHT22;26723;57.478;12.066;2023-08-31T13:53:17;18.80;99.90
40996;DHT22;26723;57.478;12.066;2023-08-31T13:56:26;18.70;99.90
40996;DHT22;26723;57.478;12.066;2023-08-31T13:59:35;18.50;99.90
40996;DHT22;26723;57.478;12.066;2023-08-31T14:02:43;18.60;99.90
40996;DHT22;26723;57.478;12.066;2023-08-31T14:05:53;18.40;99.90
40996;DHT22;26723;57.478;12.066;2023-08-31T14:09:02;18.30;99.90
40996;DHT22;26723;57.478;12.066;2023-08-31T14:12:12;18.20;99.90
40996;DHT22;26723;57.478;12.066;2023-08-31T14:15:20;18.00;99.90
40996;DHT22;26723;57.478;12.066;2023-08-31T14:18:29;18.00;99.90
40996;DHT22;26723;57.478;12.066;2023-08-31T14:21:40;17.90;99.90
40996;DHT22;26723;57.478;12.066;2023-08-31T14:24:49;17.90;99.90
40996;DHT22;26723;57.478;12.066;2023-08-31T14:27:57;17.90;99.90
40996;DHT22;26723;57.478;12.066;2023-08-31T14:31:06;17.90;99.90
40996;DHT22;26723;57.478;12.066;2023-08-31T14:34:15;18.10;99.90
40996;DHT22;26723;57.478;12.066;2023-08-31T14:37:25;18.10;99.90
40996;DHT22;26723;57.478;12.066;2023-08-31T14:40:34;18.10;99.90
40996;DHT22;26723;57.478;12.066;2023-08-31T14:43:47;18.10;99.90
40996;DHT22;26723;57.478;12.066;2023-08-31T14:46:56;17.90;99.90
40996;DHT22;26723;57.478;12.066;2023-08-31T14:50:05;17.90;99.90
40996;DHT22;26723;57.478;12.066;2023-08-31T14:53:15;17.70;99.90
40996;DHT22;26723;57.478;12.066;2023-08-31T14:56:23;17.60;99.90
40996;DHT22;26723;57.478;12.066;2023-08-31T14:59:32;17.60;99.90
40996;DHT22;26723;57.478;12.066;2023-08-31T15:02:40;17.50;99.90
40996;DHT22;26723;57.478;12.066;2023-08-31T15:05:49;17.60;99.90
40996;DHT22;26723;57.478;12.066;2023-08-31T15:08:59;17.50;99.90
40996;DHT22;26723;57.478;12.066;2023-08-31T15:12:08;17.40;99.90
40996;DHT22;26723;57.478;12.066;2023-08-31T15:15:17;17.40;99.90
40996;DHT22;26723;57.478;12.066;2023-08-31T15:18:25;17.40;99.90
40996;DHT22;26723;57.478;12.066;2023-08-31T15:21:34;17.50;99.90
40996;DHT22;26723;57.478;12.066;2023-08-31T15:24:45;17.40;99.90
40996;DHT22;26723;57.478;12.066;2023-08-31T15:27:54;17.40;99.90
40996;DHT22;26723;57.478;12.066;2023-08-31T15:31:11;17.30;99.90
40996;DHT22;26723;57.478;12.066;2023-08-31T15:34:22;17.10;99.90
40996;DHT22;26723;57.478;12.066;2023-08-31T15:37:31;17.00;99.90
40996;DHT22;26723;57.478;12.066;2023-08-31T15:40:47;16.80;99.90
40996;DHT22;26723;57.478;12.066;2023-08-31T15:43:57;16.70;99.90
40996;DHT22;26723;57.478;12.066;2023-08-31T15:47:06;16.70;99.90
40996;DHT22;26723;57.478;12.066;2023-08-31T15:50:15;16.70;99.90
40996;DHT22;26723;57.478;12.066;2023-08-31T15:53:24;16.80;99.90
40996;DHT22;26723;57.478;12.066;2023-08-31T15:56:34;16.70;99.90
40996;DHT22;26723;57.478;12.066;2023-08-31T15:59:45;16.50;99.90
40996;DHT22;26723;57.478;12.066;2023-08-31T16:02:53;16.60;99.90
40996;DHT22;26723;57.478;12.066;2023-08-31T16:06:04;16.40;99.90
40996;DHT22;26723;57.478;12.066;2023-08-31T16:09:15;16.20;99.90
40996;DHT22;26723;57.478;12.066;2023-08-31T16:12:25;16.20;99.90
40996;DHT22;26723;57.478;12.066;2023-08-31T16:15:33;16.10;99.90
40996;DHT22;26723;57.478;12.066;2023-08-31T16:18:42;16.10;99.90
40996;DHT22;26723;57.478;12.066;2023-08-31T16:21:50;16.00;99.90
40996;DHT22;26723;57.478;12.066;2023-08-31T16:24:59;16.00;99.90
40996;DHT22;26723;57.478;12.066;2023-08-31T16:28:10;16.00;99.90
40996;DHT22;26723;57.478;12.066;2023-08-31T16:31:19;15.90;99.90
40996;DHT22;26723;57.478;12.066;2023-08-31T16:34:27;15.90;99.90
40996;DHT22;26723;57.478;12.066;2023-08-31T16:37:37;15.80;99.90
40996;DHT22;26723;57.478;12.066;2023-08-31T16:40:48;15.60;99.90
40996;DHT22;26723;57.478;12.066;2023-08-31T16:43:58;15.60;99.90
40996;DHT22;26723;57.478;12.066;2023-08-31T16:47:09;15.50;99.90
40996;DHT22;26723;57.478;12.066;2023-08-31T16:50:32;15.50;99.90
40996;DHT22;26723;57.478;12.066;2023-08-31T16:53:40;15.50;99.90
40996;DHT22;26723;57.478;12.066;2023-08-31T16:56:49;15.50;99.90
40996;DHT22;26723;57.478;12.066;2023-08-31T16:59:59;15.50;99.90
40996;DHT22;26723;57.478;12.066;2023-08-31T17:03:07;15.50;99.90
40996;DHT22;26723;57.478;12.066;2023-08-31T17:06:16;15.40;99.90
40996;DHT22;26723;57.478;12.066;2023-08-31T17:09:25;15.30;99.90
40996;DHT22;26723;57.478;12.066;2023-08-31T17:12:58;15.30;99.90
40996;DHT22;26723;57.478;12.066;2023-08-31T17:16:12;15.30;99.90
40996;DHT22;26723;57.478;12.066;2023-08-31T17:20:31;15.30;99.90
40996;DHT22;26723;57.478;12.066;2023-08-31T17:23:39;15.40;99.90
40996;DHT22;26723;57.478;12.066;2023-08-31T17:26:49;15.40;99.90
40996;DHT22;26723;57.478;12.066;2023-08-31T17:29:58;15.40;99.90
40996;DHT22;26723;57.478;12.066;2023-08-31T17:33:12;15.40;99.90
40996;DHT22;26723;57.478;12.066;2023-08-31T17:36:21;15.30;99.90
40996;DHT22;26723;57.478;12.066;2023-08-31T17:39:30;15.40;99.90
40996;DHT22;26723;57.478;12.066;2023-08-31T17:42:38;15.40;99.90
40996;DHT22;26723;57.478;12.066;2023-08-31T17:45:48;15.50;99.90
40996;DHT22;26723;57.478;12.066;2023-08-31T17:48:58;15.60;99.90
40996;DHT22;26723;57.478;12.066;2023-08-31T17:52:08;15.50;99.90
40996;DHT22;26723;57.478;12.066;2023-08-31T17:55:19;15.50;99.90
40996;DHT22;26723;57.478;12.066;2023-08-31T17:58:28;15.50;99.90
40996;DHT22;26723;57.478;12.066;2023-08-31T18:01:37;15.50;99.90
40996;DHT22;26723;57.478;12.066;2023-08-31T18:04:51;15.40;99.90
40996;DHT22;26723;57.478;12.066;2023-08-31T18:08:00;15.40;99.90
40996;DHT22;26723;57.478;12.066;2023-08-31T18:11:09;15.40;99.90
40996;DHT22;26723;57.478;12.066;2023-08-31T18:14:18;15.30;99.90
40996;DHT22;26723;57.478;12.066;2023-08-31T18:17:27;15.20;99.90
40996;DHT22;26723;57.478;12.066;2023-08-31T18:20:38;15.20;99.90
40996;DHT22;26723;57.478;12.066;2023-08-31T18:23:47;15.20;99.90
40996;DHT22;26723;57.478;12.066;2023-08-31T18:26:56;15.30;99.90
40996;DHT22;26723;57.478;12.066;2023-08-31T18:30:05;15.30;99.90
40996;DHT22;26723;57.478;12.066;2023-08-31T18:33:14;15.20;99.90
40996;DHT22;26723;57.478;12.066;2023-08-31T18:36:29;15.30;99.90
40996;DHT22;26723;57.478;12.066;2023-08-31T18:39:39;15.30;99.90
40996;DHT22;26723;57.478;12.066;2023-08-31T18:42:48;15.30;99.90
40996;DHT22;26723;57.478;12.066;2023-08-31T18:45:56;15.30;99.90
40996;DHT22;26723;57.478;12.066;2023-08-31T18:49:05;15.20;99.90
40996;DHT22;26723;57.478;12.066;2023-08-31T18:52:15;15.20;99.90
40996;DHT22;26723;57.478;12.066;2023-08-31T18:55:24;15.20;99.90
40996;DHT22;26723;57.478;12.066;2023-08-31T18:58:33;15.20;99.90
40996;DHT22;26723;57.478;12.066;2023-08-31T19:01:41;15.10;99.90
40996;DHT22;26723;57.478;12.066;2023-08-31T19:04:51;15.10;99.90
40996;DHT22;26723;57.478;12.066;2023-08-31T19:08:04;15.10;99.90
40996;DHT22;26723;57.478;12.066;2023-08-31T19:11:16;15.10;99.90
40996;DHT22;26723;57.478;12.066;2023-08-31T19:14:25;15.10;99.90
40996;DHT22;26723;57.478;12.066;2023-08-31T19:17:33;15.00;99.90
40996;DHT22;26723;57.478;12.066;2023-08-31T19:20:47;15.00;99.90
40996;DHT22;26723;57.478;12.066;2023-08-31T19:23:57;15.00;99.90
40996;DHT22;26723;57.478;12.066;2023-08-31T19:27:06;15.00;99.90
40996;DHT22;26723;57.478;12.066;2023-08-31T19:30:16;15.00;99.90
40996;DHT22;26723;57.478;12.066;2023-08-31T19:33:24;15.00;99.90
40996;DHT22;26723;57.478;12.066;2023-08-31T19:36:33;14.90;99.90
40996;DHT22;26723;57.478;12.066;2023-08-31T19:39:43;14.90;99.90
40996;DHT22;26723;57.478;12.066;2023-08-31T19:42:51;14.90;99.90